sensor_id;sensor_type;location;lat;lon;timestamp;temperature;humidity
51793;DHT22;37850;53.178;6.376;2023-01-30T00:01:33;6.20;99.90
51793;DHT22;37850;53.178;6.376;2023-01-30T00:03:59;6.30;99.90
51793;DHT22;37850;53.178;6.376;2023-01-30T00:06:25;6.20;99.90
51793;DHT22;37850;53.178;6.376;2023-01-30T00:08:51;6.20;99.90
51793;DHT22;37850;53.178;6.376;2023-01-30T00:11:17;6.30;99.90
51793;DHT22;37850;53.178;6.376;2023-01-30T00:13:48;6.20;99.90
51793;DHT22;37850;53.178;6.376;2023-01-30T00:16:16;6.30;99.90
51793;DHT22;37850;53.178;6.376;2023-01-30T00:18:42;6.30;99.90
51793;DHT22;37850;53.178;6.376;2023-01-30T00:21:10;6.30;99.90
51793;DHT22;37850;53.178;6.376;2023-01-30T00:23:37;6.40;99.90
51793;DHT22;37850;53.178;6.376;2023-01-30T00:26:04;6.30;99.90
51793;DHT22;37850;53.178;6.376;2023-01-30T00:28:30;6.40;99.90
51793;DHT22;37850;53.178;6.376;2023-01-30T00:30:56;6.40;99.90
51793;DHT22;37850;53.178;6.376;2023-01-30T00:33:24;6.40;99.90
51793;DHT22;37850;53.178;6.376;2023-01-30T00:35:51;6.50;99.90
51793;DHT22;37850;53.178;6.376;2023-01-30T00:38:18;6.50;99.90
51793;DHT22;37850;53.178;6.376;2023-01-30T00:40:44;6.90;99.90
51793;DHT22;37850;53.178;6.376;2023-01-30T00:43:13;6.50;99.90
51793;DHT22;37850;53.178;6.376;2023-01-30T00:45:59;6.50;99.90
51793;DHT22;37850;53.178;6.376;2023-01-30T00:48:43;6.50;99.90
51793;DHT22;37850;53.178;6.376;2023-01-30T00:51:09;6.50;99.90
51793;DHT22;37850;53.178;6.376;2023-01-30T00:53:35;6.50;99.90
51793;DHT22;37850;53.178;6.376;2023-01-30T00:56:01;6.40;99.90
51793;DHT22;37850;53.178;6.376;2023-01-30T00:58:26;6.40;99.90
51793;DHT22;37850;53.178;6.376;2023-01-30T01:00:52;6.40;99.90
51793;DHT22;37850;53.178;6.376;2023-01-30T01:03:18;6.40;99.90
51793;DHT22;37850;53.178;6.376;2023-01-30T01:05:44;6.40;99.90
51793;DHT22;37850;53.178;6.376;2023-01-30T01:08:11;6.40;99.90
51793;DHT22;37850;53.178;6.376;2023-01-30T01:10:37;6.40;99.90
51793;DHT22;37850;53.178;6.376;2023-01-30T01:13:03;6.40;99.90
51793;DHT22;37850;53.178;6.376;2023-01-30T01:15:31;6.40;99.90
51793;DHT22;37850;53.178;6.376;2023-01-30T01:17:56;6.40;99.90
51793;DHT22;37850;53.178;6.376;2023-01-30T01:20:22;6.40;99.90
51793;DHT22;37850;53.178;6.376;2023-01-30T01:22:52;6.40;99.90
51793;DHT22;37850;53.178;6.376;2023-01-30T01:25:18;6.40;99.90
51793;DHT22;37850;53.178;6.376;2023-01-30T01:27:45;6.40;99.90
51793;DHT22;37850;53.178;6.376;2023-01-30T01:30:11;6.40;99.90
51793;DHT22;37850;53.178;6.376;2023-01-30T01:32:37;6.40;99.90
51793;DHT22;37850;53.178;6.376;2023-01-30T01:35:03;6.40;99.90
51793;DHT22;37850;53.178;6.376;2023-01-30T01:37:29;6.40;99.90
51793;DHT22;37850;53.178;6.376;2023-01-30T01:39:55;6.40;99.90
51793;DHT22;37850;53.178;6.376;2023-01-30T01:42:39;6.40;99.90
51793;DHT22;37850;53.178;6.376;2023-01-30T01:47:38;6.50;99.90
51793;DHT22;37850;53.178;6.376;2023-01-30T01:50:09;6.50;99.90
51793;DHT22;37850;53.178;6.376;2023-01-30T01:52:37;6.40;99.90
51793;DHT22;37850;53.178;6.376;2023-01-30T01:55:04;6.50;99.90
51793;DHT22;37850;53.178;6.376;2023-01-30T01:57:46;6.50;99.90
51793;DHT22;37850;53.178;6.376;2023-01-30T02:00:17;6.50;99.90
51793;DHT22;37850;53.178;6.376;2023-01-30T02:02:54;6.50;99.90
51793;DHT22;37850;53.178;6.376;2023-01-30T02:05:24;6.50;99.90
51793;DHT22;37850;53.178;6.376;2023-01-30T02:07:59;6.50;99.90
51793;DHT22;37850;53.178;6.376;2023-01-30T02:13:08;6.60;99.90
51793;DHT22;37850;53.178;6.376;2023-01-30T02:15:34;6.90;99.90
51793;DHT22;37850;53.178;6.376;2023-01-30T02:18:00;6.60;99.90
51793;DHT22;37850;53.178;6.376;2023-01-30T02:29:07;6.60;99.90
51793;DHT22;37850;53.178;6.376;2023-01-30T02:31:42;6.60;99.90
51793;DHT22;37850;53.178;6.376;2023-01-30T02:34:27;6.60;99.90
51793;DHT22;37850;53.178;6.376;2023-01-30T02:37:34;6.60;99.90
51793;DHT22;37850;53.178;6.376;2023-01-30T02:43:07;6.70;99.90
51793;DHT22;37850;53.178;6.376;2023-01-30T02:45:59;6.70;99.90
51793;DHT22;37850;53.178;6.376;2023-01-30T02:48:39;6.70;99.90
51793;DHT22;37850;53.178;6.376;2023-01-30T02:51:13;6.70;99.90
51793;DHT22;37850;53.178;6.376;2023-01-30T02:53:42;6.70;99.90
51793;DHT22;37850;53.178;6.376;2023-01-30T02:56:08;6.70;99.90
51793;DHT22;37850;53.178;6.376;2023-01-30T02:58:39;6.70;99.90
51793;DHT22;37850;53.178;6.376;2023-01-30T03:03:51;6.80;99.90
51793;DHT22;37850;53.178;6.376;2023-01-30T03:12:04;6.80;99.90
51793;DHT22;37850;53.178;6.376;2023-01-30T03:14:45;6.80;99.90
51793;DHT22;37850;53.178;6.376;2023-01-30T03:17:13;6.80;99.90
51793;DHT22;37850;53.178;6.376;2023-01-30T03:19:42;6.80;99.90
51793;DHT22;37850;53.178;6.376;2023-01-30T03:22:08;6.80;99.90
51793;DHT22;37850;53.178;6.376;2023-01-30T03:24:34;6.80;99.90
51793;DHT22;37850;53.178;6.376;2023-01-30T03:27:11;6.80;99.90
51793;DHT22;37850;53.178;6.376;2023-01-30T03:29:38;6.70;99.90
51793;DHT22;37850;53.178;6.376;2023-01-30T03:32:06;6.70;99.90
51793;DHT22;37850;53.178;6.376;2023-01-30T03:34:32;6.70;99.90
51793;DHT22;37850;53.178;6.376;2023-01-30T03:36:58;6.70;99.90
51793;DHT22;37850;53.178;6.376;2023-01-30T03:39:24;6.60;99.90
51793;DHT22;37850;53.178;6.376;2023-01-30T03:41:51;6.60;99.90
51793;DHT22;37850;53.178;6.376;2023-01-30T03:44:16;6.50;99.90
51793;DHT22;37850;53.178;6.376;2023-01-30T03:46:42;6.50;99.90
51793;DHT22;37850;53.178;6.376;2023-01-30T03:49:08;6.50;99.90
51793;DHT22;37850;53.178;6.376;2023-01-30T03:51:34;6.50;99.90
51793;DHT22;37850;53.178;6.376;2023-01-30T03:53:59;6.50;99.90
51793;DHT22;37850;53.178;6.376;2023-01-30T03:56:25;6.50;99.90
51793;DHT22;37850;53.178;6.376;2023-01-30T03:58:51;6.40;99.90
51793;DHT22;37850;53.178;6.376;2023-01-30T04:01:17;6.40;99.90
51793;DHT22;37850;53.178;6.376;2023-01-30T04:03:42;6.40;99.90
51793;DHT22;37850;53.178;6.376;2023-01-30T04:06:08;6.40;99.90
51793;DHT22;37850;53.178;6.376;2023-01-30T04:08:34;6.40;99.90
51793;DHT22;37850;53.178;6.376;2023-01-30T04:10:59;6.40;99.90
51793;DHT22;37850;53.178;6.376;2023-01-30T04:13:25;6.40;99.90
51793;DHT22;37850;53.178;6.376;2023-01-30T04:15:51;6.30;99.90
51793;DHT22;37850;53.178;6.376;2023-01-30T04:18:17;6.70;99.90
51793;DHT22;37850;53.178;6.376;2023-01-30T04:20:43;6.30;99.90
51793;DHT22;37850;53.178;6.376;2023-01-30T04:23:09;6.20;99.90
51793;DHT22;37850;53.178;6.376;2023-01-30T04:25:35;6.20;99.90
51793;DHT22;37850;53.178;6.376;2023-01-30T04:28:01;6.20;99.90
51793;DHT22;37850;53.178;6.376;2023-01-30T04:30:27;6.20;99.90
51793;DHT22;37850;53.178;6.376;2023-01-30T04:32:52;6.20;99.90
51793;DHT22;37850;53.178;6.376;2023-01-30T04:35:18;6.80;99.90
51793;DHT22;37850;53.178;6.376;2023-01-30T04:37:44;6.20;99.90
51793;DHT22;37850;53.178;6.376;2023-01-30T04:40:10;6.80;99.90
51793;DHT22;37850;53.178;6.376;2023-01-30T04:42:36;6.20;99.90
51793;DHT22;37850;53.178;6.376;2023-01-30T04:45:02;6.20;99.90
51793;DHT22;37850;53.178;6.376;2023-01-30T04:47:27;5.50;99.90
51793;DHT22;37850;53.178;6.376;2023-01-30T04:49:53;6.20;99.90
51793;DHT22;37850;53.178;6.376;2023-01-30T04:52:19;6.10;99.90
51793;DHT22;37850;53.178;6.376;2023-01-30T04:54:44;6.10;99.90
51793;DHT22;37850;53.178;6.376;2023-01-30T04:57:10;6.00;99.90
51793;DHT22;37850;53.178;6.376;2023-01-30T04:59:36;6.00;99.90
51793;DHT22;37850;53.178;6.376;2023-01-30T05:02:02;6.00;99.90
51793;DHT22;37850;53.178;6.376;2023-01-30T05:04:27;5.90;99.90
51793;DHT22;37850;53.178;6.376;2023-01-30T05:06:53;5.90;99.90
51793;DHT22;37850;53.178;6.376;2023-01-30T05:09:18;5.90;99.90
51793;DHT22;37850;53.178;6.376;2023-01-30T05:11:44;5.80;99.90
51793;DHT22;37850;53.178;6.376;2023-01-30T05:14:10;6.20;99.90
51793;DHT22;37850;53.178;6.376;2023-01-30T05:16:36;5.80;99.90
51793;DHT22;37850;53.178;6.376;2023-01-30T05:19:01;5.80;99.90
51793;DHT22;37850;53.178;6.376;2023-01-30T05:21:27;5.80;99.90
51793;DHT22;37850;53.178;6.376;2023-01-30T05:23:54;5.80;99.90
51793;DHT22;37850;53.178;6.376;2023-01-30T05:26:21;5.80;99.90
51793;DHT22;37850;53.178;6.376;2023-01-30T05:28:51;5.80;99.90
51793;DHT22;37850;53.178;6.376;2023-01-30T05:31:18;5.80;99.90
51793;DHT22;37850;53.178;6.376;2023-01-30T05:33:46;5.80;99.90
51793;DHT22;37850;53.178;6.376;2023-01-30T05:36:14;5.80;99.90
51793;DHT22;37850;53.178;6.376;2023-01-30T05:38:42;6.10;99.90
51793;DHT22;37850;53.178;6.376;2023-01-30T05:41:12;6.00;99.90
51793;DHT22;37850;53.178;6.376;2023-01-30T05:43:38;5.70;99.90
51793;DHT22;37850;53.178;6.376;2023-01-30T05:46:05;5.70;99.90
51793;DHT22;37850;53.178;6.376;2023-01-30T05:48:32;5.70;99.90
51793;DHT22;37850;53.178;6.376;2023-01-30T05:50:59;5.70;99.90
51793;DHT22;37850;53.178;6.376;2023-01-30T05:53:30;5.90;99.90
51793;DHT22;37850;53.178;6.376;2023-01-30T05:56:06;5.60;99.90
51793;DHT22;37850;53.178;6.376;2023-01-30T05:58:32;5.60;99.90
51793;DHT22;37850;53.178;6.376;2023-01-30T06:01:06;5.50;99.90
51793;DHT22;37850;53.178;6.376;2023-01-30T06:03:34;5.60;99.90
51793;DHT22;37850;53.178;6.376;2023-01-30T06:06:04;5.60;99.90
51793;DHT22;37850;53.178;6.376;2023-01-30T06:08:30;5.70;99.90
51793;DHT22;37850;53.178;6.376;2023-01-30T06:11:04;6.10;99.90
51793;DHT22;37850;53.178;6.376;2023-01-30T06:13:30;6.30;99.90
51793;DHT22;37850;53.178;6.376;2023-01-30T06:15:56;6.40;99.90
51793;DHT22;37850;53.178;6.376;2023-01-30T06:18:22;5.80;99.90
51793;DHT22;37850;53.178;6.376;2023-01-30T06:20:52;6.30;99.90
51793;DHT22;37850;53.178;6.376;2023-01-30T06:23:19;5.80;99.90
51793;DHT22;37850;53.178;6.376;2023-01-30T06:25:46;5.80;99.90
51793;DHT22;37850;53.178;6.376;2023-01-30T06:28:13;5.90;99.90
51793;DHT22;37850;53.178;6.376;2023-01-30T06:30:40;5.90;99.90
51793;DHT22;37850;53.178;6.376;2023-01-30T06:33:06;5.90;99.90
51793;DHT22;37850;53.178;6.376;2023-01-30T06:35:32;5.90;99.90
51793;DHT22;37850;53.178;6.376;2023-01-30T06:37:58;5.90;99.90
51793;DHT22;37850;53.178;6.376;2023-01-30T06:40:24;5.90;99.90
51793;DHT22;37850;53.178;6.376;2023-01-30T06:42:49;5.90;99.90
51793;DHT22;37850;53.178;6.376;2023-01-30T06:45:16;6.00;99.90
51793;DHT22;37850;53.178;6.376;2023-01-30T06:47:50;6.10;99.90
51793;DHT22;37850;53.178;6.376;2023-01-30T06:50:18;6.00;99.90
51793;DHT22;37850;53.178;6.376;2023-01-30T06:52:49;6.00;99.90
51793;DHT22;37850;53.178;6.376;2023-01-30T06:55:17;6.00;99.90
51793;DHT22;37850;53.178;6.376;2023-01-30T06:57:44;6.00;99.90
51793;DHT22;37850;53.178;6.376;2023-01-30T07:00:12;6.00;99.90
51793;DHT22;37850;53.178;6.376;2023-01-30T07:02:39;6.00;99.90
51793;DHT22;37850;53.178;6.376;2023-01-30T07:05:06;6.10;99.90
51793;DHT22;37850;53.178;6.376;2023-01-30T07:07:32;6.00;99.90
51793;DHT22;37850;53.178;6.376;2023-01-30T07:10:00;6.00;99.90
51793;DHT22;37850;53.178;6.376;2023-01-30T07:12:26;6.00;99.90
51793;DHT22;37850;53.178;6.376;2023-01-30T07:14:53;6.00;99.90
51793;DHT22;37850;53.178;6.376;2023-01-30T07:17:22;6.10;99.90
51793;DHT22;37850;53.178;6.376;2023-01-30T07:19:48;6.50;99.90
51793;DHT22;37850;53.178;6.376;2023-01-30T07:22:14;6.50;99.90
51793;DHT22;37850;53.178;6.376;2023-01-30T07:24:40;6.00;99.90
51793;DHT22;37850;53.178;6.376;2023-01-30T07:27:08;6.00;99.90
51793;DHT22;37850;53.178;6.376;2023-01-30T07:29:35;6.00;99.90
51793;DHT22;37850;53.178;6.376;2023-01-30T07:32:02;6.00;99.90
51793;DHT22;37850;53.178;6.376;2023-01-30T07:34:28;6.00;99.90
51793;DHT22;37850;53.178;6.376;2023-01-30T07:36:54;6.00;99.90
51793;DHT22;37850;53.178;6.376;2023-01-30T07:39:19;6.00;99.90
51793;DHT22;37850;53.178;6.376;2023-01-30T07:41:45;6.00;99.90
51793;DHT22;37850;53.178;6.376;2023-01-30T07:44:11;6.00;99.90
51793;DHT22;37850;53.178;6.376;2023-01-30T07:46:37;6.00;99.90
51793;DHT22;37850;53.178;6.376;2023-01-30T07:49:04;6.10;99.90
51793;DHT22;37850;53.178;6.376;2023-01-30T07:51:30;6.10;99.90
51793;DHT22;37850;53.178;6.376;2023-01-30T07:53:56;6.10;99.90
51793;DHT22;37850;53.178;6.376;2023-01-30T07:56:22;6.10;99.90
51793;DHT22;37850;53.178;6.376;2023-01-30T07:58:52;6.10;99.90
51793;DHT22;37850;53.178;6.376;2023-01-30T08:01:18;6.10;99.90
51793;DHT22;37850;53.178;6.376;2023-01-30T08:03:44;6.20;99.90
51793;DHT22;37850;53.178;6.376;2023-01-30T08:06:11;6.20;99.90
51793;DHT22;37850;53.178;6.376;2023-01-30T08:08:38;6.20;99.90
51793;DHT22;37850;53.178;6.376;2023-01-30T08:11:04;6.20;99.90
51793;DHT22;37850;53.178;6.376;2023-01-30T08:13:30;6.20;99.90
51793;DHT22;37850;53.178;6.376;2023-01-30T08:16:04;6.20;99.90
51793;DHT22;37850;53.178;6.376;2023-01-30T08:18:33;6.20;99.90
51793;DHT22;37850;53.178;6.376;2023-01-30T08:21:04;6.30;99.90
51793;DHT22;37850;53.178;6.376;2023-01-30T08:23:31;6.20;99.90
51793;DHT22;37850;53.178;6.376;2023-01-30T08:25:58;6.20;99.90
51793;DHT22;37850;53.178;6.376;2023-01-30T08:28:25;6.20;99.90
51793;DHT22;37850;53.178;6.376;2023-01-30T08:30:51;6.20;99.90
51793;DHT22;37850;53.178;6.376;2023-01-30T08:33:18;6.20;99.90
51793;DHT22;37850;53.178;6.376;2023-01-30T08:35:44;6.30;99.90
51793;DHT22;37850;53.178;6.376;2023-01-30T08:38:10;6.30;99.90
51793;DHT22;37850;53.178;6.376;2023-01-30T08:40:36;6.30;99.90
51793;DHT22;37850;53.178;6.376;2023-01-30T08:43:02;6.30;99.90
51793;DHT22;37850;53.178;6.376;2023-01-30T08:45:29;6.30;99.90
51793;DHT22;37850;53.178;6.376;2023-01-30T08:47:59;6.30;99.90
51793;DHT22;37850;53.178;6.376;2023-01-30T08:50:25;6.70;99.90
51793;DHT22;37850;53.178;6.376;2023-01-30T08:52:51;6.40;99.90
51793;DHT22;37850;53.178;6.376;2023-01-30T08:55:16;6.30;99.90
51793;DHT22;37850;53.178;6.376;2023-01-30T08:57:43;6.40;99.90
51793;DHT22;37850;53.178;6.376;2023-01-30T09:00:10;6.40;99.90
51793;DHT22;37850;53.178;6.376;2023-01-30T09:02:36;6.40;99.90
51793;DHT22;37850;53.178;6.376;2023-01-30T09:05:03;6.60;99.90
51793;DHT22;37850;53.178;6.376;2023-01-30T09:07:28;6.50;99.90
51793;DHT22;37850;53.178;6.376;2023-01-30T09:09:54;6.50;99.90
51793;DHT22;37850;53.178;6.376;2023-01-30T09:12:20;6.60;99.90
51793;DHT22;37850;53.178;6.376;2023-01-30T09:14:45;7.20;99.90
51793;DHT22;37850;53.178;6.376;2023-01-30T09:17:12;6.60;99.90
51793;DHT22;37850;53.178;6.376;2023-01-30T09:19:38;6.60;99.90
51793;DHT22;37850;53.178;6.376;2023-01-30T09:22:04;6.60;99.90
51793;DHT22;37850;53.178;6.376;2023-01-30T09:24:31;6.60;99.90
51793;DHT22;37850;53.178;6.376;2023-01-30T09:26:57;6.70;99.90
51793;DHT22;37850;53.178;6.376;2023-01-30T09:29:27;6.60;99.90
51793;DHT22;37850;53.178;6.376;2023-01-30T09:31:54;6.60;99.90
51793;DHT22;37850;53.178;6.376;2023-01-30T09:34:24;6.70;99.90
51793;DHT22;37850;53.178;6.376;2023-01-30T09:36:58;6.60;99.90
51793;DHT22;37850;53.178;6.376;2023-01-30T09:39:25;6.60;99.90
51793;DHT22;37850;53.178;6.376;2023-01-30T09:50:45;6.50;99.90
51793;DHT22;37850;53.178;6.376;2023-01-30T09:56:14;6.50;99.90
51793;DHT22;37850;53.178;6.376;2023-01-30T09:58:45;6.60;99.90
51793;DHT22;37850;53.178;6.376;2023-01-30T10:04:29;6.60;99.90
51793;DHT22;37850;53.178;6.376;2023-01-30T10:10:31;6.70;99.90
51793;DHT22;37850;53.178;6.376;2023-01-30T10:15:53;7.30;99.90
51793;DHT22;37850;53.178;6.376;2023-01-30T10:21:13;6.90;99.90
51793;DHT22;37850;53.178;6.376;2023-01-30T10:26:52;6.90;99.90
51793;DHT22;37850;53.178;6.376;2023-01-30T10:31:58;6.60;99.90
51793;DHT22;37850;53.178;6.376;2023-01-30T10:34:36;6.40;99.90
51793;DHT22;37850;53.178;6.376;2023-01-30T10:37:12;6.30;99.90
51793;DHT22;37850;53.178;6.376;2023-01-30T10:39:53;5.90;99.90
51793;DHT22;37850;53.178;6.376;2023-01-30T10:45:22;5.60;99.90
51793;DHT22;37850;53.178;6.376;2023-01-30T10:50:33;5.80;99.90
51793;DHT22;37850;53.178;6.376;2023-01-30T10:53:25;5.80;99.90
51793;DHT22;37850;53.178;6.376;2023-01-30T10:56:10;5.60;99.90
51793;DHT22;37850;53.178;6.376;2023-01-30T10:58:48;5.70;99.90
51793;DHT22;37850;53.178;6.376;2023-01-30T11:04:01;6.10;99.90
51793;DHT22;37850;53.178;6.376;2023-01-30T11:06:28;5.80;99.90
51793;DHT22;37850;53.178;6.376;2023-01-30T11:08:56;5.90;99.90
51793;DHT22;37850;53.178;6.376;2023-01-30T11:11:52;6.00;99.90
51793;DHT22;37850;53.178;6.376;2023-01-30T11:14:18;6.10;99.90
51793;DHT22;37850;53.178;6.376;2023-01-30T11:16:47;6.30;99.90
51793;DHT22;37850;53.178;6.376;2023-01-30T11:19:15;6.30;99.90
51793;DHT22;37850;53.178;6.376;2023-01-30T11:21:50;6.30;99.90
51793;DHT22;37850;53.178;6.376;2023-01-30T11:24:21;6.40;99.90
51793;DHT22;37850;53.178;6.376;2023-01-30T11:26:48;6.80;99.90
51793;DHT22;37850;53.178;6.376;2023-01-30T11:29:32;6.50;99.90
51793;DHT22;37850;53.178;6.376;2023-01-30T11:32:02;6.50;99.90
51793;DHT22;37850;53.178;6.376;2023-01-30T11:34:28;6.50;99.90
51793;DHT22;37850;53.178;6.376;2023-01-30T11:37:14;6.50;99.90
51793;DHT22;37850;53.178;6.376;2023-01-30T11:39:50;6.50;99.90
51793;DHT22;37850;53.178;6.376;2023-01-30T11:42:18;7.00;99.90
51793;DHT22;37850;53.178;6.376;2023-01-30T11:44:45;6.60;99.90
51793;DHT22;37850;53.178;6.376;2023-01-30T11:47:23;6.60;99.90
51793;DHT22;37850;53.178;6.376;2023-01-30T11:49:52;6.70;99.90
51793;DHT22;37850;53.178;6.376;2023-01-30T11:52:35;6.70;99.90
51793;DHT22;37850;53.178;6.376;2023-01-30T11:55:12;6.70;99.90
51793;DHT22;37850;53.178;6.376;2023-01-30T12:00:18;6.80;99.90
51793;DHT22;37850;53.178;6.376;2023-01-30T12:02:45;6.90;99.90
51793;DHT22;37850;53.178;6.376;2023-01-30T12:05:31;6.90;99.90
51793;DHT22;37850;53.178;6.376;2023-01-30T12:10:58;6.90;99.90
51793;DHT22;37850;53.178;6.376;2023-01-30T12:13:40;6.90;99.90
51793;DHT22;37850;53.178;6.376;2023-01-30T12:16:25;7.10;99.90
51793;DHT22;37850;53.178;6.376;2023-01-30T12:19:03;6.80;99.90
51793;DHT22;37850;53.178;6.376;2023-01-30T12:26:44;6.80;99.90
51793;DHT22;37850;53.178;6.376;2023-01-30T12:29:37;6.80;99.90
51793;DHT22;37850;53.178;6.376;2023-01-30T12:32:15;6.80;99.90
51793;DHT22;37850;53.178;6.376;2023-01-30T12:34:42;6.80;99.90
51793;DHT22;37850;53.178;6.376;2023-01-30T12:46:06;7.00;99.90
51793;DHT22;37850;53.178;6.376;2023-01-30T12:51:35;7.10;99.90
51793;DHT22;37850;53.178;6.376;2023-01-30T12:57:59;7.10;99.90
51793;DHT22;37850;53.178;6.376;2023-01-30T13:03:18;7.10;99.90
51793;DHT22;37850;53.178;6.376;2023-01-30T13:08:54;7.10;99.90
51793;DHT22;37850;53.178;6.376;2023-01-30T13:27:58;7.20;99.90
51793;DHT22;37850;53.178;6.376;2023-01-30T13:30:28;7.20;99.90
51793;DHT22;37850;53.178;6.376;2023-01-30T13:33:02;7.20;99.90
51793;DHT22;37850;53.178;6.376;2023-01-30T13:35:39;7.80;99.90
51793;DHT22;37850;53.178;6.376;2023-01-30T13:38:07;7.30;99.90
51793;DHT22;37850;53.178;6.376;2023-01-30T13:40:38;7.30;99.90
51793;DHT22;37850;53.178;6.376;2023-01-30T13:43:29;7.30;99.90
51793;DHT22;37850;53.178;6.376;2023-01-30T13:45:59;7.30;99.90
51793;DHT22;37850;53.178;6.376;2023-01-30T13:49:05;7.40;99.90
51793;DHT22;37850;53.178;6.376;2023-01-30T13:51:51;7.40;99.90
51793;DHT22;37850;53.178;6.376;2023-01-30T13:54:32;7.30;99.90
51793;DHT22;37850;53.178;6.376;2023-01-30T14:08:26;7.40;99.90
51793;DHT22;37850;53.178;6.376;2023-01-30T14:10:54;7.60;99.90
51793;DHT22;37850;53.178;6.376;2023-01-30T14:13:22;7.30;99.90
51793;DHT22;37850;53.178;6.376;2023-01-30T14:16:00;7.40;99.90
51793;DHT22;37850;53.178;6.376;2023-01-30T14:18:34;7.30;99.90
51793;DHT22;37850;53.178;6.376;2023-01-30T14:21:21;7.30;99.90
51793;DHT22;37850;53.178;6.376;2023-01-30T14:24:00;7.30;99.90
51793;DHT22;37850;53.178;6.376;2023-01-30T14:27:00;7.20;99.90
51793;DHT22;37850;53.178;6.376;2023-01-30T14:40:48;7.20;99.90
51793;DHT22;37850;53.178;6.376;2023-01-30T14:45:53;7.20;99.90
51793;DHT22;37850;53.178;6.376;2023-01-30T14:51:20;7.20;99.90
51793;DHT22;37850;53.178;6.376;2023-01-30T14:56:15;7.20;99.90
51793;DHT22;37850;53.178;6.376;2023-01-30T14:59:00;7.20;99.90
51793;DHT22;37850;53.178;6.376;2023-01-30T15:01:27;7.20;99.90
51793;DHT22;37850;53.178;6.376;2023-01-30T15:04:14;7.20;99.90
51793;DHT22;37850;53.178;6.376;2023-01-30T15:06:41;7.20;99.90
51793;DHT22;37850;53.178;6.376;2023-01-30T15:09:07;7.20;99.90
51793;DHT22;37850;53.178;6.376;2023-01-30T15:11:35;7.20;99.90
51793;DHT22;37850;53.178;6.376;2023-01-30T15:14:19;7.20;99.90
51793;DHT22;37850;53.178;6.376;2023-01-30T15:17:40;7.20;99.90
51793;DHT22;37850;53.178;6.376;2023-01-30T15:20:08;7.10;99.90
51793;DHT22;37850;53.178;6.376;2023-01-30T15:22:51;6.80;99.90
51793;DHT22;37850;53.178;6.376;2023-01-30T15:28:01;6.50;99.90
51793;DHT22;37850;53.178;6.376;2023-01-30T15:33:18;6.30;99.90
51793;DHT22;37850;53.178;6.376;2023-01-30T15:35:44;6.20;99.90
51793;DHT22;37850;53.178;6.376;2023-01-30T15:38:25;6.20;99.90
51793;DHT22;37850;53.178;6.376;2023-01-30T15:40:53;6.20;99.90
51793;DHT22;37850;53.178;6.376;2023-01-30T15:51:36;6.30;99.90
51793;DHT22;37850;53.178;6.376;2023-01-30T15:54:08;6.40;99.90
51793;DHT22;37850;53.178;6.376;2023-01-30T15:56:35;6.30;99.90
51793;DHT22;37850;53.178;6.376;2023-01-30T15:59:03;6.30;99.90
51793;DHT22;37850;53.178;6.376;2023-01-30T16:01:29;6.30;99.90
51793;DHT22;37850;53.178;6.376;2023-01-30T16:03:55;6.30;99.90
51793;DHT22;37850;53.178;6.376;2023-01-30T16:06:32;6.30;99.90
51793;DHT22;37850;53.178;6.376;2023-01-30T16:09:02;6.30;99.90
51793;DHT22;37850;53.178;6.376;2023-01-30T16:14:00;6.30;99.90
51793;DHT22;37850;53.178;6.376;2023-01-30T16:16:26;6.30;99.90
51793;DHT22;37850;53.178;6.376;2023-01-30T16:18:59;6.30;99.90
51793;DHT22;37850;53.178;6.376;2023-01-30T16:21:37;6.20;99.90
51793;DHT22;37850;53.178;6.376;2023-01-30T16:24:15;6.20;99.90
51793;DHT22;37850;53.178;6.376;2023-01-30T16:26:46;6.20;99.90
51793;DHT22;37850;53.178;6.376;2023-01-30T16:29:15;6.10;99.90
51793;DHT22;37850;53.178;6.376;2023-01-30T16:31:44;6.40;99.90
51793;DHT22;37850;53.178;6.376;2023-01-30T16:37:18;6.10;99.90
51793;DHT22;37850;53.178;6.376;2023-01-30T16:40:10;6.10;99.90
51793;DHT22;37850;53.178;6.376;2023-01-30T16:42:38;6.00;99.90
51793;DHT22;37850;53.178;6.376;2023-01-30T16:50:45;6.00;99.90
51793;DHT22;37850;53.178;6.376;2023-01-30T16:53:13;5.90;99.90
51793;DHT22;37850;53.178;6.376;2023-01-30T16:56:00;5.90;99.90
51793;DHT22;37850;53.178;6.376;2023-01-30T16:58:29;5.90;99.90
51793;DHT22;37850;53.178;6.376;2023-01-30T17:00:59;5.90;99.90
51793;DHT22;37850;53.178;6.376;2023-01-30T17:03:30;5.90;99.90
51793;DHT22;37850;53.178;6.376;2023-01-30T17:05:59;5.90;99.90
51793;DHT22;37850;53.178;6.376;2023-01-30T17:14:21;5.90;99.90
51793;DHT22;37850;53.178;6.376;2023-01-30T17:17:07;5.90;99.90
51793;DHT22;37850;53.178;6.376;2023-01-30T17:19:36;5.80;99.90
51793;DHT22;37850;53.178;6.376;2023-01-30T17:22:05;5.90;99.90
51793;DHT22;37850;53.178;6.376;2023-01-30T17:24:34;5.80;99.90
51793;DHT22;37850;53.178;6.376;2023-01-30T17:27:01;5.90;99.90
51793;DHT22;37850;53.178;6.376;2023-01-30T17:29:30;5.90;99.90
51793;DHT22;37850;53.178;6.376;2023-01-30T17:31:56;5.80;99.90
51793;DHT22;37850;53.178;6.376;2023-01-30T17:34:23;5.80;99.90
51793;DHT22;37850;53.178;6.376;2023-01-30T17:36:50;5.80;99.90
51793;DHT22;37850;53.178;6.376;2023-01-30T17:39:19;5.90;99.90
51793;DHT22;37850;53.178;6.376;2023-01-30T17:41:45;5.90;99.90
51793;DHT22;37850;53.178;6.376;2023-01-30T17:44:12;5.90;99.90
51793;DHT22;37850;53.178;6.376;2023-01-30T17:46:43;5.90;99.90
51793;DHT22;37850;53.178;6.376;2023-01-30T17:49:21;5.90;99.90
51793;DHT22;37850;53.178;6.376;2023-01-30T17:51:48;5.90;99.90
51793;DHT22;37850;53.178;6.376;2023-01-30T17:54:14;5.90;99.90
51793;DHT22;37850;53.178;6.376;2023-01-30T17:56:47;5.90;99.90
51793;DHT22;37850;53.178;6.376;2023-01-30T17:59:16;5.90;99.90
51793;DHT22;37850;53.178;6.376;2023-01-30T18:01:47;5.90;99.90
51793;DHT22;37850;53.178;6.376;2023-01-30T18:04:14;5.90;99.90
51793;DHT22;37850;53.178;6.376;2023-01-30T18:06:42;5.90;99.90
51793;DHT22;37850;53.178;6.376;2023-01-30T18:09:19;5.90;99.90
51793;DHT22;37850;53.178;6.376;2023-01-30T18:11:46;5.90;99.90
51793;DHT22;37850;53.178;6.376;2023-01-30T18:14:12;6.00;99.90
51793;DHT22;37850;53.178;6.376;2023-01-30T18:16:38;5.90;99.90
51793;DHT22;37850;53.178;6.376;2023-01-30T18:19:06;5.90;99.90
51793;DHT22;37850;53.178;6.376;2023-01-30T18:21:34;5.90;99.90
51793;DHT22;37850;53.178;6.376;2023-01-30T18:24:01;5.90;99.90
51793;DHT22;37850;53.178;6.376;2023-01-30T18:26:27;6.00;99.90
51793;DHT22;37850;53.178;6.376;2023-01-30T18:28:54;5.90;99.90
51793;DHT22;37850;53.178;6.376;2023-01-30T18:31:20;5.90;99.90
51793;DHT22;37850;53.178;6.376;2023-01-30T18:33:48;5.90;99.90
51793;DHT22;37850;53.178;6.376;2023-01-30T18:36:16;5.90;99.90
51793;DHT22;37850;53.178;6.376;2023-01-30T18:38:43;5.90;99.90
51793;DHT22;37850;53.178;6.376;2023-01-30T18:41:11;5.80;99.90
51793;DHT22;37850;53.178;6.376;2023-01-30T18:43:37;5.80;99.90
51793;DHT22;37850;53.178;6.376;2023-01-30T18:46:08;5.80;99.90
51793;DHT22;37850;53.178;6.376;2023-01-30T18:48:37;5.70;99.90
51793;DHT22;37850;53.178;6.376;2023-01-30T18:51:13;6.00;99.90
51793;DHT22;37850;53.178;6.376;2023-01-30T18:53:43;5.70;99.90
51793;DHT22;37850;53.178;6.376;2023-01-30T18:56:21;5.70;99.90